AirNav   Free Bose QuietComfort 20
 
 814 users online  

AK83 Gannon's Landing Airport
Wasilla, Alaska, USA

GOING TO WASILLA?


FAA INFORMATION EFFECTIVE 05 DECEMBER 2019

Location

FAA Identifier: AK83
Lat/Long: 61-37-38.1000N 149-36-33.5900W
61-37.635000N 149-36.559833W
61.6272500,-149.6093306
(estimated)
Elevation: 380 ft. / 116 m (estimated)
Variation: 24E (1995)
From city: 6 miles W of WASILLA, AK
Time zone: UTC -9 (UTC -8 during Daylight Saving Time)
Zip code: 99654

Airport Operations

Airport use: Private use. Permission required prior to landing
Activation date: 08/1997
Control tower: no
ARTCC: ANCHORAGE CENTER
FSS: KENAI FLIGHT SERVICE STATION [907-283-7211]
Attendance: UNATNDD
Wind indicator: yes
Segmented circle: no

Airport Communications

CTAF: 122.8
WX AWOS-3P at IYS (4 nm SE): 135.25 (907-373-3801)
WX AWOS-3P at BCV (13 nm S): 135.55 (907-688-0826)
WX ASOS at PAQ (15 nm E): 134.75 (907-746-6675)

Nearby radio navigation aids

VOR radial/distance  VOR name  Freq  Var
BGQr052/10.8BIG LAKE VORTAC112.5019E
TEDr002/29.3ANCHORAGE VOR/DME113.1518E

 
NDB name  Hdg/Dist  Freq  Var  ID
CAMPBELL LAKE009/30.133816ECMQ -.-. -- --.-

Airport Services

Runway Information

Runway 18/36

Dimensions: 2100 x 175 ft. / 640 x 53 m
Surface: turf
RY SLIPPERY WHEN WET.
RUNWAY 18  RUNWAY 36
Traffic pattern: leftright
Displaced threshold: 900 ft.300 ft.

Airport Ownership and Management from official FAA records

Ownership: Privately-owned
Owner: CHARLY CENTER
P.O. BOX 298783
WASILLA, AK 99654
Phone 907-376-8069
Manager: CHARLY CENTER
P.O. BOX 298783
WASILLA, AK 99629
Phone 907-376-8069

Airport Operational Statistics

Aircraft based on the field: 3
Single engine airplanes: 3
    

Additional Remarks

RY MUDDY IN THE SPRING.

Instrument Procedures

There are no published instrument procedures at AK83.

Some nearby airports with instrument procedures:

PAWS - Wasilla Airport (4 nm SE)
PAGQ - Big Lake Airport (8 nm SW)
PAUO - Willow Airport (15 nm NW)
PAAQ - Warren "Bud" Woods Palmer Municipal Airport (15 nm E)
PAFR - Bryant Army Airfield Heliport (22 nm S)
 
Loc | Ops | Rwys | IFR | FBO | Links
Com | Nav | Svcs | Stats | Notes

Crowley
 
Area around AK83 (Gannon's Landing Airport)
 
Road maps at: MapQuest Bing Google
 
Aerial photo
No photo
 
Sectional chart

 
Airport distance calculator
Flying to Gannon's Landing Airport? Find the distance to fly.

From to AK83

Sunrise and sunset
Times for 15-Dec-2019
 Local
(UTC-9)
 Zulu
(UTC)
Morning civil twilight09:1018:10
Sunrise10:1419:14
Sunset15:3400:34
Evening civil twilight16:3701:37

Current date and time
Zulu (UTC)  15-Dec-2019 19:11:56
Local (UTC-9)  15-Dec-2019 10:11:56
 
METAR
PABV 
13nm S 
151856Z AUTO 20004KT 10SM CLR M06/M07 A2960 RMK AO2 SLP032 T10561067 FZRANO
PAAQ 
15nm E 
151853Z 32007KT 10SM FEW070 SCT180 M01/M08 A2960 RMK AO2 SLP030 T10061083
PAFR 
22nm S 
151858Z AUTO 00000KT 10SM SCT080 OVC150 M08/M09 A2956 RMK AO2 SLP021 T10801090 FZRANO $
PAED 
23nm S 
151856Z AUTO 00000KT 10SM OVC150 M06/M08 A2960 RMK AO2 SLP022 T10591076 $
PAWS 
26nm NE 
151856Z AUTO 06017G24KT 10SM CLR 01/M08 A2961 RMK AO2 SLP034 T00061083 FZRANO
PAMR 
26nm S 
151853Z 35003KT 10SM FEW075 M04/M07 A2960 RMK AO2 SLP027 T10391072 $
TAF
PAAQ 
15nm E 
151738Z 1518/1618 35012G20KT P6SM SKC TEMPO 1518/1520 35010KT FM160300 01012KT P6SM SCT070 BKN100
NOTAMs
Click for the latest NOTAMs
NOTAMs are issued by the DoD/FAA and will open in a separate window not controlled by AirNav.

 

 
 

Would you like to see your business listed on this page?

 If your business provides an interesting product or service to pilots, flight crews, aircraft, or users of the Gannon's Landing Airport, you should consider listing it here.  To start the listing process, click on the button below
 
Add a business
 

Other Pages about Gannon's Landing Airport

Update a link
 
Copyright © AirNav, LLC. All rights reserved. Privacy Policy  Contact